Maupin, OR

11:56 AM PDT on July 28, 2014 (GMT -0700)
Roberts Field Airport (KRDM) Elev 3077 ft | 44.25 °N, 121.15 °W | Change Station

Current weather conditions updated 1 hour ago

Clear
Clear
84 °F
Feels Like 84 °F
N
0
Wind Variable Wind from North

Today is forecast to be Warmer than yesterday.

Today
High -- | Low -- °F
--% Chance of Precip.
Yesterday
High -- | Low -- °F
Precip. -- in
5:46 AM 8:37 PM
Waxing Crescent, 3% visible
Pressure 30.06 in
Visibility 10.0 miles
Clouds Clear
Dew Point 38 °F
Humidity 19%
Rainfall 0.00 in
Snow Depth 1 in
UV 8 out of 12
Pollen 5.50 out of 12
Air Quality Not available.
Flu Activity Not available.
METAR KRDM 281756Z 00000KT 10SM CLR 29/03 A3015 RMK AO2 SLP180 T02890033 10294 20078 58005

More Conditions Fewer Conditions

Pressure 30.06 in
Visibility 10.0 miles
Clouds Clear
Dew Point 38 °F
Humidity 19%
Rainfall 0.00 in
Snow Depth 1 in
UV 8 out of 12
Pollen 5.50 out of 12
Air Quality Not available.
Flu Activity Not available.
METAR KRDM 281756Z 00000KT 10SM CLR 29/03 A3015 RMK AO2 SLP180 T02890033 10294 20078 58005

More Conditions Fewer Conditions

10-Day Weather Forecast

Almanac

Astronomy

Jul. 28, 2014 Rise Set
Actual Time 5:46 AM PDT 8:37 PM PDT
Civil Twilight 5:11 AM PDT 9:11 PM PDT
Nautical Twilight 4:28 AM PDT 9:54 PM PDT
Astronomical Twilight 3:36 AM PDT 10:45 PM PDT
Moon 7:40 AM PDT 9:12 PM PDT
Length of Visible Light 15h 59m
Length of Day
14h 50m
Tomorrow will be 2m 18s shorter.
Waxing Crescent, 3% of the Moon is Illuminated
Today
Waxing Crescent
Aug 3
First Quarter
Aug 10
Full
Aug 17
Last Quarter
Aug 25
New

Today's Extremes

State Highs State Lows

Community

WunderPhotos

Upload Photos

1,738,433 photos uploaded!

Nearby

Snow Depth

Station Depth Elevation
Clear Lake 1 in 3500 ft
Peavine Ridge 0 in 3500 ft
Blazed Alder 0 in 3650 ft
Greenpoint 0 in 3200 ft
North Fork 1 in 3120 ft

Earthquake Activity

City Distance Mag. Time & Date
No recent earthquake activity has been reported nearby.
Minimum magnitude displayed is 2.5.

Coastal Water Temperatures

Place Temperature
No Stations Reporting

Nearby Weather Stations

Station Location Temp. Heat Index Dew Point Humidity Wind Precip. Elev Updated Type
RAWS HEHE 1 OR, Maupin, OR 85 °F 82 °F 45 °F 25% NE  at  4 mph 0.00 in / hr 2679 ft 10:24 AM PDT MADIS
RAWS MUTTON MOUNTAIN OR, Warm Springs, OR 80 °F 79 °F 41 °F 25% SE  at  5 mph 0.00 in / hr 4011 ft 10:34 AM PDT MADIS
RAWS MT. WILSON OR, Maupin, OR 81 °F 80 °F 49 °F 33% ESE  at  2 mph 0.00 in / hr 4001 ft 10:33 AM PDT MADIS
Wapinitia Airport, Maupin, OR 90.5 °F 87 °F 44 °F 20% WSW  at  3.0 mph 0.00 in / hr 1910 ft 11:51 AM PDT Normal
High School, Maupin, OR 92.5 °F 89 °F 48 °F 22% NE  at  2.3 mph 0.00 in / hr 1106 ft 11:56 AM PDT Rapid Fire
MesoWest Timberline Lodge - Top , Government Camp, OR 67 °F - 35 °F 30% WSW  at  1 mph 0.00 in / hr 7000 ft 9:00 AM PDT MADIS

Show More Stations Show Fewer Stations